sensor_id;sensor_type;location;lat;lon;timestamp;P1;durP1;ratioP1;P2;durP2;ratioP2
5612;SDS011;63463;53.586;9.928;2023-03-02T00:01:03;20.10;;;11.43;;
5612;SDS011;63463;53.586;9.928;2023-03-02T00:03:32;32.50;;;12.50;;
5612;SDS011;63463;53.586;9.928;2023-03-02T00:05:58;38.73;;;12.90;;
5612;SDS011;63463;53.586;9.928;2023-03-02T00:08:24;24.70;;;11.77;;
5612;SDS011;63463;53.586;9.928;2023-03-02T00:10:51;34.07;;;13.80;;
5612;SDS011;63463;53.586;9.928;2023-03-02T00:13:18;59.90;;;13.57;;
5612;SDS011;63463;53.586;9.928;2023-03-02T00:15:45;42.53;;;12.40;;
5612;SDS011;63463;53.586;9.928;2023-03-02T00:18:11;38.03;;;11.90;;
5612;SDS011;63463;53.586;9.928;2023-03-02T00:20:37;24.63;;;11.00;;
5612;SDS011;63463;53.586;9.928;2023-03-02T00:23:03;21.37;;;11.53;;
5612;SDS011;63463;53.586;9.928;2023-03-02T00:25:29;17.20;;;10.83;;
5612;SDS011;63463;53.586;9.928;2023-03-02T00:27:55;32.10;;;12.10;;
5612;SDS011;63463;53.586;9.928;2023-03-02T00:30:21;23.10;;;11.10;;
5612;SDS011;63463;53.586;9.928;2023-03-02T00:32:47;22.53;;;11.63;;
5612;SDS011;63463;53.586;9.928;2023-03-02T00:35:13;24.67;;;10.93;;
5612;SDS011;63463;53.586;9.928;2023-03-02T00:37:39;18.87;;;10.70;;
5612;SDS011;63463;53.586;9.928;2023-03-02T00:40:06;18.20;;;11.77;;
5612;SDS011;63463;53.586;9.928;2023-03-02T00:42:36;20.13;;;12.33;;
5612;SDS011;63463;53.586;9.928;2023-03-02T00:45:05;18.20;;;11.70;;
5612;SDS011;63463;53.586;9.928;2023-03-02T00:47:32;21.87;;;11.00;;
5612;SDS011;63463;53.586;9.928;2023-03-02T00:49:59;19.57;;;10.40;;
5612;SDS011;63463;53.586;9.928;2023-03-02T00:52:25;16.37;;;10.27;;
5612;SDS011;63463;53.586;9.928;2023-03-02T00:54:51;28.37;;;11.13;;
5612;SDS011;63463;53.586;9.928;2023-03-02T00:57:17;24.47;;;10.60;;
5612;SDS011;63463;53.586;9.928;2023-03-02T00:59:43;19.60;;;10.47;;
5612;SDS011;63463;53.586;9.928;2023-03-02T01:02:09;18.77;;;10.97;;
5612;SDS011;63463;53.586;9.928;2023-03-02T01:04:37;37.33;;;11.47;;
5612;SDS011;63463;53.586;9.928;2023-03-02T01:07:04;15.47;;;10.60;;
5612;SDS011;63463;53.586;9.928;2023-03-02T01:09:30;16.60;;;12.20;;
5612;SDS011;63463;53.586;9.928;2023-03-02T01:11:57;15.43;;;9.77;;
5612;SDS011;63463;53.586;9.928;2023-03-02T01:14:23;20.57;;;10.87;;
5612;SDS011;63463;53.586;9.928;2023-03-02T01:16:50;18.30;;;10.50;;
5612;SDS011;63463;53.586;9.928;2023-03-02T01:19:16;16.13;;;9.40;;
5612;SDS011;63463;53.586;9.928;2023-03-02T01:21:44;27.90;;;10.50;;
5612;SDS011;63463;53.586;9.928;2023-03-02T01:24:10;14.70;;;10.10;;
5612;SDS011;63463;53.586;9.928;2023-03-02T01:26:36;16.10;;;10.27;;
5612;SDS011;63463;53.586;9.928;2023-03-02T01:29:02;17.60;;;9.03;;
5612;SDS011;63463;53.586;9.928;2023-03-02T01:31:29;13.17;;;9.43;;
5612;SDS011;63463;53.586;9.928;2023-03-02T01:33:57;23.23;;;9.87;;
5612;SDS011;63463;53.586;9.928;2023-03-02T01:36:23;15.00;;;9.83;;
5612;SDS011;63463;53.586;9.928;2023-03-02T01:38:49;16.47;;;9.80;;
5612;SDS011;63463;53.586;9.928;2023-03-02T01:41:16;15.30;;;9.67;;
5612;SDS011;63463;53.586;9.928;2023-03-02T01:43:42;12.70;;;9.60;;
5612;SDS011;63463;53.586;9.928;2023-03-02T01:46:11;19.50;;;10.80;;
5612;SDS011;63463;53.586;9.928;2023-03-02T01:51:05;46.97;;;10.27;;
5612;SDS011;63463;53.586;9.928;2023-03-02T01:53:32;19.80;;;10.17;;
5612;SDS011;63463;53.586;9.928;2023-03-02T01:55:59;13.60;;;9.20;;
5612;SDS011;63463;53.586;9.928;2023-03-02T01:58:25;13.67;;;9.33;;
5612;SDS011;63463;53.586;9.928;2023-03-02T02:00:52;28.10;;;10.20;;
5612;SDS011;63463;53.586;9.928;2023-03-02T02:03:20;11.10;;;9.20;;
5612;SDS011;63463;53.586;9.928;2023-03-02T02:05:52;12.80;;;9.33;;
5612;SDS011;63463;53.586;9.928;2023-03-02T02:08:20;14.53;;;10.23;;
5612;SDS011;63463;53.586;9.928;2023-03-02T02:10:47;18.43;;;10.30;;
5612;SDS011;63463;53.586;9.928;2023-03-02T02:13:14;20.77;;;10.80;;
5612;SDS011;63463;53.586;9.928;2023-03-02T02:15:39;14.90;;;10.20;;
5612;SDS011;63463;53.586;9.928;2023-03-02T02:18:06;11.57;;;9.37;;
5612;SDS011;63463;53.586;9.928;2023-03-02T02:20:37;16.23;;;10.30;;
5612;SDS011;63463;53.586;9.928;2023-03-02T02:29:20;24.50;;;11.07;;
5612;SDS011;63463;53.586;9.928;2023-03-02T02:31:15;13.20;;;10.70;;
5612;SDS011;63463;53.586;9.928;2023-03-02T02:33:43;34.07;;;10.10;;
5612;SDS011;63463;53.586;9.928;2023-03-02T02:36:21;15.63;;;9.90;;
5612;SDS011;63463;53.586;9.928;2023-03-02T02:38:49;57.47;;;10.93;;
5612;SDS011;63463;53.586;9.928;2023-03-02T02:41:20;14.47;;;9.60;;
5612;SDS011;63463;53.586;9.928;2023-03-02T02:43:48;12.93;;;9.83;;
5612;SDS011;63463;53.586;9.928;2023-03-02T02:46:15;41.53;;;9.30;;
5612;SDS011;63463;53.586;9.928;2023-03-02T02:48:41;19.90;;;10.30;;
5612;SDS011;63463;53.586;9.928;2023-03-02T02:51:07;16.20;;;9.10;;
5612;SDS011;63463;53.586;9.928;2023-03-02T02:53:55;25.90;;;10.10;;
5612;SDS011;63463;53.586;9.928;2023-03-02T02:56:28;19.50;;;10.53;;
5612;SDS011;63463;53.586;9.928;2023-03-02T02:58:56;64.23;;;11.07;;
5612;SDS011;63463;53.586;9.928;2023-03-02T03:01:24;19.10;;;9.50;;
5612;SDS011;63463;53.586;9.928;2023-03-02T03:03:54;23.20;;;11.00;;
5612;SDS011;63463;53.586;9.928;2023-03-02T03:06:23;20.40;;;10.43;;
5612;SDS011;63463;53.586;9.928;2023-03-02T03:08:52;21.07;;;9.50;;
5612;SDS011;63463;53.586;9.928;2023-03-02T03:11:20;19.17;;;11.30;;
5612;SDS011;63463;53.586;9.928;2023-03-02T03:13:52;21.93;;;10.90;;
5612;SDS011;63463;53.586;9.928;2023-03-02T03:16:18;22.90;;;10.30;;
5612;SDS011;63463;53.586;9.928;2023-03-02T03:18:45;20.83;;;10.83;;
5612;SDS011;63463;53.586;9.928;2023-03-02T03:21:13;21.00;;;10.60;;
5612;SDS011;63463;53.586;9.928;2023-03-02T03:23:39;20.83;;;10.70;;
5612;SDS011;63463;53.586;9.928;2023-03-02T03:26:05;17.80;;;10.10;;
5612;SDS011;63463;53.586;9.928;2023-03-02T03:28:31;20.33;;;11.30;;
5612;SDS011;63463;53.586;9.928;2023-03-02T03:30:57;26.87;;;10.70;;
5612;SDS011;63463;53.586;9.928;2023-03-02T03:33:24;24.27;;;11.23;;
5612;SDS011;63463;53.586;9.928;2023-03-02T03:35:50;21.13;;;11.40;;
5612;SDS011;63463;53.586;9.928;2023-03-02T03:38:16;13.67;;;10.00;;
5612;SDS011;63463;53.586;9.928;2023-03-02T03:40:42;32.60;;;10.13;;
5612;SDS011;63463;53.586;9.928;2023-03-02T03:43:09;17.23;;;10.73;;
5612;SDS011;63463;53.586;9.928;2023-03-02T03:45:37;15.97;;;10.67;;
5612;SDS011;63463;53.586;9.928;2023-03-02T03:48:04;30.40;;;9.53;;
5612;SDS011;63463;53.586;9.928;2023-03-02T03:50:32;40.53;;;12.13;;
5612;SDS011;63463;53.586;9.928;2023-03-02T03:52:58;23.87;;;10.70;;
5612;SDS011;63463;53.586;9.928;2023-03-02T03:55:25;20.87;;;11.17;;
5612;SDS011;63463;53.586;9.928;2023-03-02T03:57:53;17.20;;;11.07;;
5612;SDS011;63463;53.586;9.928;2023-03-02T04:00:19;18.20;;;10.93;;
5612;SDS011;63463;53.586;9.928;2023-03-02T04:02:45;20.73;;;10.47;;
5612;SDS011;63463;53.586;9.928;2023-03-02T04:05:11;25.20;;;11.97;;
5612;SDS011;63463;53.586;9.928;2023-03-02T04:07:38;25.47;;;11.27;;
5612;SDS011;63463;53.586;9.928;2023-03-02T04:10:05;18.10;;;9.17;;
5612;SDS011;63463;53.586;9.928;2023-03-02T04:12:33;16.17;;;11.20;;
5612;SDS011;63463;53.586;9.928;2023-03-02T04:14:59;15.60;;;10.20;;
5612;SDS011;63463;53.586;9.928;2023-03-02T04:17:26;22.53;;;10.47;;
5612;SDS011;63463;53.586;9.928;2023-03-02T04:19:52;15.90;;;10.43;;
5612;SDS011;63463;53.586;9.928;2023-03-02T04:22:18;19.60;;;12.00;;
5612;SDS011;63463;53.586;9.928;2023-03-02T04:24:48;15.63;;;10.70;;
5612;SDS011;63463;53.586;9.928;2023-03-02T04:27:14;24.93;;;9.87;;
5612;SDS011;63463;53.586;9.928;2023-03-02T04:29:40;29.00;;;10.60;;
5612;SDS011;63463;53.586;9.928;2023-03-02T04:32:07;25.63;;;11.03;;
5612;SDS011;63463;53.586;9.928;2023-03-02T04:34:34;35.60;;;9.53;;
5612;SDS011;63463;53.586;9.928;2023-03-02T04:37:00;15.50;;;9.00;;
5612;SDS011;63463;53.586;9.928;2023-03-02T04:39:26;21.47;;;11.00;;
5612;SDS011;63463;53.586;9.928;2023-03-02T04:41:53;14.30;;;9.47;;
5612;SDS011;63463;53.586;9.928;2023-03-02T04:44:19;37.10;;;10.30;;
5612;SDS011;63463;53.586;9.928;2023-03-02T04:46:47;19.40;;;9.60;;
5612;SDS011;63463;53.586;9.928;2023-03-02T04:49:14;22.90;;;10.73;;
5612;SDS011;63463;53.586;9.928;2023-03-02T04:51:42;17.30;;;10.07;;
5612;SDS011;63463;53.586;9.928;2023-03-02T04:54:16;14.37;;;9.97;;
5612;SDS011;63463;53.586;9.928;2023-03-02T04:56:42;31.10;;;11.20;;
5612;SDS011;63463;53.586;9.928;2023-03-02T04:59:12;18.43;;;10.17;;
5612;SDS011;63463;53.586;9.928;2023-03-02T05:01:38;19.50;;;10.63;;
5612;SDS011;63463;53.586;9.928;2023-03-02T05:04:05;18.70;;;11.87;;
5612;SDS011;63463;53.586;9.928;2023-03-02T05:06:32;20.00;;;10.83;;
5612;SDS011;63463;53.586;9.928;2023-03-02T05:08:59;22.87;;;10.57;;
5612;SDS011;63463;53.586;9.928;2023-03-02T05:11:25;19.40;;;10.97;;
5612;SDS011;63463;53.586;9.928;2023-03-02T05:13:52;21.50;;;10.00;;
5612;SDS011;63463;53.586;9.928;2023-03-02T05:16:19;13.93;;;9.50;;
5612;SDS011;63463;53.586;9.928;2023-03-02T05:18:45;94.77;;;11.17;;
5612;SDS011;63463;53.586;9.928;2023-03-02T05:21:12;19.87;;;10.30;;
5612;SDS011;63463;53.586;9.928;2023-03-02T05:23:38;26.27;;;10.67;;
5612;SDS011;63463;53.586;9.928;2023-03-02T05:26:06;21.47;;;10.00;;
5612;SDS011;63463;53.586;9.928;2023-03-02T05:28:32;22.93;;;11.10;;
5612;SDS011;63463;53.586;9.928;2023-03-02T05:30:58;20.77;;;11.93;;
5612;SDS011;63463;53.586;9.928;2023-03-02T05:33:25;42.40;;;12.83;;
5612;SDS011;63463;53.586;9.928;2023-03-02T05:35:51;25.73;;;11.17;;
5612;SDS011;63463;53.586;9.928;2023-03-02T05:38:17;28.77;;;11.20;;
5612;SDS011;63463;53.586;9.928;2023-03-02T05:40:44;19.43;;;11.20;;
5612;SDS011;63463;53.586;9.928;2023-03-02T05:43:12;29.57;;;10.47;;
5612;SDS011;63463;53.586;9.928;2023-03-02T05:45:40;21.17;;;11.10;;
5612;SDS011;63463;53.586;9.928;2023-03-02T05:48:07;15.37;;;10.40;;
5612;SDS011;63463;53.586;9.928;2023-03-02T05:50:38;20.67;;;11.13;;
5612;SDS011;63463;53.586;9.928;2023-03-02T05:53:04;17.57;;;11.13;;
5612;SDS011;63463;53.586;9.928;2023-03-02T05:55:31;36.33;;;11.20;;
5612;SDS011;63463;53.586;9.928;2023-03-02T05:58:02;21.77;;;11.90;;
5612;SDS011;63463;53.586;9.928;2023-03-02T06:00:28;19.90;;;10.83;;
5612;SDS011;63463;53.586;9.928;2023-03-02T06:02:54;20.83;;;11.90;;
5612;SDS011;63463;53.586;9.928;2023-03-02T06:05:21;18.93;;;11.80;;
5612;SDS011;63463;53.586;9.928;2023-03-02T06:07:48;38.40;;;11.23;;
5612;SDS011;63463;53.586;9.928;2023-03-02T06:10:14;31.03;;;11.93;;
5612;SDS011;63463;53.586;9.928;2023-03-02T06:12:41;21.00;;;11.77;;
5612;SDS011;63463;53.586;9.928;2023-03-02T06:15:08;27.77;;;11.77;;
5612;SDS011;63463;53.586;9.928;2023-03-02T06:17:35;21.13;;;12.80;;
5612;SDS011;63463;53.586;9.928;2023-03-02T06:20:04;23.80;;;10.67;;
5612;SDS011;63463;53.586;9.928;2023-03-02T06:22:38;18.93;;;11.40;;
5612;SDS011;63463;53.586;9.928;2023-03-02T06:25:10;42.93;;;11.73;;
5612;SDS011;63463;53.586;9.928;2023-03-02T06:27:37;21.10;;;12.00;;
5612;SDS011;63463;53.586;9.928;2023-03-02T06:30:04;24.17;;;12.40;;
5612;SDS011;63463;53.586;9.928;2023-03-02T06:32:35;21.40;;;12.30;;
5612;SDS011;63463;53.586;9.928;2023-03-02T06:35:02;33.43;;;12.10;;
5612;SDS011;63463;53.586;9.928;2023-03-02T06:37:29;22.60;;;12.73;;
5612;SDS011;63463;53.586;9.928;2023-03-02T06:39:59;41.63;;;12.67;;
5612;SDS011;63463;53.586;9.928;2023-03-02T06:42:29;19.07;;;12.43;;
5612;SDS011;63463;53.586;9.928;2023-03-02T06:44:56;24.33;;;12.03;;
5612;SDS011;63463;53.586;9.928;2023-03-02T06:47:22;41.00;;;14.17;;
5612;SDS011;63463;53.586;9.928;2023-03-02T06:49:49;22.90;;;12.07;;
5612;SDS011;63463;53.586;9.928;2023-03-02T06:52:17;50.00;;;14.60;;
5612;SDS011;63463;53.586;9.928;2023-03-02T06:54:44;40.30;;;12.40;;
5612;SDS011;63463;53.586;9.928;2023-03-02T06:57:10;24.70;;;12.40;;
5612;SDS011;63463;53.586;9.928;2023-03-02T06:59:36;25.50;;;12.17;;
5612;SDS011;63463;53.586;9.928;2023-03-02T07:02:08;23.63;;;13.17;;
5612;SDS011;63463;53.586;9.928;2023-03-02T07:04:36;24.37;;;13.80;;
5612;SDS011;63463;53.586;9.928;2023-03-02T07:07:03;30.53;;;13.40;;
5612;SDS011;63463;53.586;9.928;2023-03-02T07:09:32;29.20;;;12.80;;
5612;SDS011;63463;53.586;9.928;2023-03-02T07:11:59;21.57;;;12.43;;
5612;SDS011;63463;53.586;9.928;2023-03-02T07:14:27;27.03;;;12.63;;
5612;SDS011;63463;53.586;9.928;2023-03-02T07:16:54;23.63;;;12.03;;
5612;SDS011;63463;53.586;9.928;2023-03-02T07:19:24;27.17;;;12.70;;
5612;SDS011;63463;53.586;9.928;2023-03-02T07:21:50;25.57;;;13.73;;
5612;SDS011;63463;53.586;9.928;2023-03-02T07:24:16;51.60;;;12.43;;
5612;SDS011;63463;53.586;9.928;2023-03-02T07:26:43;24.60;;;12.50;;
5612;SDS011;63463;53.586;9.928;2023-03-02T07:29:10;35.93;;;12.87;;
5612;SDS011;63463;53.586;9.928;2023-03-02T07:31:37;38.37;;;13.93;;
5612;SDS011;63463;53.586;9.928;2023-03-02T07:34:03;44.77;;;12.60;;
5612;SDS011;63463;53.586;9.928;2023-03-02T07:36:29;40.03;;;12.50;;
5612;SDS011;63463;53.586;9.928;2023-03-02T07:38:55;40.80;;;12.30;;
5612;SDS011;63463;53.586;9.928;2023-03-02T07:41:21;34.53;;;13.07;;
5612;SDS011;63463;53.586;9.928;2023-03-02T07:43:47;39.20;;;12.80;;
5612;SDS011;63463;53.586;9.928;2023-03-02T07:46:14;53.67;;;13.50;;
5612;SDS011;63463;53.586;9.928;2023-03-02T07:48:41;34.70;;;13.60;;
5612;SDS011;63463;53.586;9.928;2023-03-02T07:51:08;27.60;;;12.70;;
5612;SDS011;63463;53.586;9.928;2023-03-02T07:53:34;29.27;;;12.90;;
5612;SDS011;63463;53.586;9.928;2023-03-02T07:56:04;30.67;;;14.47;;
5612;SDS011;63463;53.586;9.928;2023-03-02T07:58:30;46.13;;;15.40;;
5612;SDS011;63463;53.586;9.928;2023-03-02T08:00:57;36.83;;;12.57;;
5612;SDS011;63463;53.586;9.928;2023-03-02T08:03:25;34.40;;;12.50;;
5612;SDS011;63463;53.586;9.928;2023-03-02T08:05:51;46.57;;;13.37;;
5612;SDS011;63463;53.586;9.928;2023-03-02T08:08:17;32.23;;;14.10;;
5612;SDS011;63463;53.586;9.928;2023-03-02T08:10:43;23.47;;;13.10;;
5612;SDS011;63463;53.586;9.928;2023-03-02T08:13:09;35.73;;;13.40;;
5612;SDS011;63463;53.586;9.928;2023-03-02T08:15:35;36.40;;;13.40;;
5612;SDS011;63463;53.586;9.928;2023-03-02T08:18:01;68.30;;;13.37;;
5612;SDS011;63463;53.586;9.928;2023-03-02T08:20:28;20.53;;;11.10;;
5612;SDS011;63463;53.586;9.928;2023-03-02T08:22:54;25.33;;;13.07;;
5612;SDS011;63463;53.586;9.928;2023-03-02T08:25:20;23.23;;;12.77;;
5612;SDS011;63463;53.586;9.928;2023-03-02T08:27:46;28.30;;;13.50;;
5612;SDS011;63463;53.586;9.928;2023-03-02T08:30:18;31.40;;;13.33;;
5612;SDS011;63463;53.586;9.928;2023-03-02T08:32:50;25.43;;;12.10;;
5612;SDS011;63463;53.586;9.928;2023-03-02T08:35:16;38.33;;;11.93;;
5612;SDS011;63463;53.586;9.928;2023-03-02T08:37:42;62.30;;;14.00;;
5612;SDS011;63463;53.586;9.928;2023-03-02T08:40:09;25.10;;;12.50;;
5612;SDS011;63463;53.586;9.928;2023-03-02T08:42:35;57.87;;;15.73;;
5612;SDS011;63463;53.586;9.928;2023-03-02T08:45:01;67.23;;;14.50;;
5612;SDS011;63463;53.586;9.928;2023-03-02T08:47:30;107.60;;;15.23;;
5612;SDS011;63463;53.586;9.928;2023-03-02T08:49:56;106.23;;;15.83;;
5612;SDS011;63463;53.586;9.928;2023-03-02T08:52:23;25.60;;;13.67;;
5612;SDS011;63463;53.586;9.928;2023-03-02T08:54:55;92.00;;;15.67;;
5612;SDS011;63463;53.586;9.928;2023-03-02T08:57:21;56.00;;;13.77;;
5612;SDS011;63463;53.586;9.928;2023-03-02T08:59:47;48.97;;;12.40;;
5612;SDS011;63463;53.586;9.928;2023-03-02T09:02:13;25.37;;;12.97;;
5612;SDS011;63463;53.586;9.928;2023-03-02T09:04:39;49.13;;;14.97;;
5612;SDS011;63463;53.586;9.928;2023-03-02T09:07:05;30.40;;;13.77;;
5612;SDS011;63463;53.586;9.928;2023-03-02T09:09:31;30.30;;;14.27;;
5612;SDS011;63463;53.586;9.928;2023-03-02T09:11:57;78.93;;;14.33;;
5612;SDS011;63463;53.586;9.928;2023-03-02T09:14:23;30.90;;;13.90;;
5612;SDS011;63463;53.586;9.928;2023-03-02T09:16:49;45.00;;;15.87;;
5612;SDS011;63463;53.586;9.928;2023-03-02T09:19:16;28.30;;;13.50;;
5612;SDS011;63463;53.586;9.928;2023-03-02T09:21:43;28.50;;;13.90;;
5612;SDS011;63463;53.586;9.928;2023-03-02T09:24:09;25.80;;;12.70;;
5612;SDS011;63463;53.586;9.928;2023-03-02T09:26:35;22.10;;;11.83;;
5612;SDS011;63463;53.586;9.928;2023-03-02T09:29:03;30.27;;;14.87;;
5612;SDS011;63463;53.586;9.928;2023-03-02T09:31:32;35.40;;;12.80;;
5612;SDS011;63463;53.586;9.928;2023-03-02T09:33:58;31.83;;;15.60;;
5612;SDS011;63463;53.586;9.928;2023-03-02T09:36:24;30.50;;;13.50;;
5612;SDS011;63463;53.586;9.928;2023-03-02T09:38:51;30.83;;;13.37;;
5612;SDS011;63463;53.586;9.928;2023-03-02T09:44:28;35.20;;;15.40;;
5612;SDS011;63463;53.586;9.928;2023-03-02T09:54:45;28.00;;;13.80;;
5612;SDS011;63463;53.586;9.928;2023-03-02T09:57:21;32.23;;;13.53;;
5612;SDS011;63463;53.586;9.928;2023-03-02T10:00:02;36.33;;;14.20;;
5612;SDS011;63463;53.586;9.928;2023-03-02T10:02:31;30.10;;;14.17;;
5612;SDS011;63463;53.586;9.928;2023-03-02T10:05:00;37.87;;;15.53;;
5612;SDS011;63463;53.586;9.928;2023-03-02T10:07:28;34.47;;;14.23;;
5612;SDS011;63463;53.586;9.928;2023-03-02T10:10:03;23.00;;;13.77;;
5612;SDS011;63463;53.586;9.928;2023-03-02T10:15:07;22.87;;;13.43;;
5612;SDS011;63463;53.586;9.928;2023-03-02T10:17:42;37.90;;;14.97;;
5612;SDS011;63463;53.586;9.928;2023-03-02T10:20:18;35.87;;;15.97;;
5612;SDS011;63463;53.586;9.928;2023-03-02T10:22:47;25.43;;;14.07;;
5612;SDS011;63463;53.586;9.928;2023-03-02T10:25:23;28.33;;;14.13;;
5612;SDS011;63463;53.586;9.928;2023-03-02T10:28:00;25.37;;;13.70;;
5612;SDS011;63463;53.586;9.928;2023-03-02T10:30:29;25.10;;;13.83;;
5612;SDS011;63463;53.586;9.928;2023-03-02T10:32:57;25.83;;;13.80;;
5612;SDS011;63463;53.586;9.928;2023-03-02T10:35:28;27.97;;;14.23;;
5612;SDS011;63463;53.586;9.928;2023-03-02T10:37:58;38.20;;;15.70;;
5612;SDS011;63463;53.586;9.928;2023-03-02T10:42:54;26.23;;;15.07;;
5612;SDS011;63463;53.586;9.928;2023-03-02T10:45:28;24.90;;;13.93;;
5612;SDS011;63463;53.586;9.928;2023-03-02T10:47:58;23.60;;;13.43;;
5612;SDS011;63463;53.586;9.928;2023-03-02T10:50:31;31.30;;;12.90;;
5612;SDS011;63463;53.586;9.928;2023-03-02T10:53:00;27.53;;;13.73;;
5612;SDS011;63463;53.586;9.928;2023-03-02T10:55:26;26.30;;;12.70;;
5612;SDS011;63463;53.586;9.928;2023-03-02T10:58:06;28.03;;;13.20;;
5612;SDS011;63463;53.586;9.928;2023-03-02T11:00:33;25.37;;;14.50;;
5612;SDS011;63463;53.586;9.928;2023-03-02T11:03:04;23.17;;;13.47;;
5612;SDS011;63463;53.586;9.928;2023-03-02T11:05:34;24.93;;;12.83;;
5612;SDS011;63463;53.586;9.928;2023-03-02T11:08:06;20.90;;;11.50;;
5612;SDS011;63463;53.586;9.928;2023-03-02T11:10:37;21.33;;;12.23;;
5612;SDS011;63463;53.586;9.928;2023-03-02T11:13:17;20.13;;;12.10;;
5612;SDS011;63463;53.586;9.928;2023-03-02T11:15:45;23.97;;;12.70;;
5612;SDS011;63463;53.586;9.928;2023-03-02T11:18:22;28.10;;;13.20;;
5612;SDS011;63463;53.586;9.928;2023-03-02T11:20:49;21.80;;;12.57;;
5612;SDS011;63463;53.586;9.928;2023-03-02T11:23:32;29.40;;;12.97;;
5612;SDS011;63463;53.586;9.928;2023-03-02T11:26:01;20.80;;;12.47;;
5612;SDS011;63463;53.586;9.928;2023-03-02T11:28:33;19.80;;;11.90;;
5612;SDS011;63463;53.586;9.928;2023-03-02T11:31:13;20.33;;;11.47;;
5612;SDS011;63463;53.586;9.928;2023-03-02T11:36:39;22.10;;;12.40;;
5612;SDS011;63463;53.586;9.928;2023-03-02T11:39:10;24.03;;;13.40;;
5612;SDS011;63463;53.586;9.928;2023-03-02T11:41:38;24.97;;;12.03;;
5612;SDS011;63463;53.586;9.928;2023-03-02T11:46:39;20.70;;;11.60;;
5612;SDS011;63463;53.586;9.928;2023-03-02T11:49:10;22.70;;;11.57;;
5612;SDS011;63463;53.586;9.928;2023-03-02T11:51:41;19.57;;;11.53;;
5612;SDS011;63463;53.586;9.928;2023-03-02T11:54:49;14.57;;;9.40;;
5612;SDS011;63463;53.586;9.928;2023-03-02T11:57:30;15.70;;;9.80;;
5612;SDS011;63463;53.586;9.928;2023-03-02T11:59:55;18.10;;;10.70;;
5612;SDS011;63463;53.586;9.928;2023-03-02T12:02:22;18.30;;;10.53;;
5612;SDS011;63463;53.586;9.928;2023-03-02T12:04:48;18.87;;;11.47;;
5612;SDS011;63463;53.586;9.928;2023-03-02T12:07:28;21.03;;;11.20;;
5612;SDS011;63463;53.586;9.928;2023-03-02T12:10:05;18.10;;;10.57;;
5612;SDS011;63463;53.586;9.928;2023-03-02T12:12:34;26.13;;;11.23;;
5612;SDS011;63463;53.586;9.928;2023-03-02T12:15:01;16.80;;;9.90;;
5612;SDS011;63463;53.586;9.928;2023-03-02T12:17:31;18.57;;;10.90;;
5612;SDS011;63463;53.586;9.928;2023-03-02T12:20:17;17.23;;;10.30;;
5612;SDS011;63463;53.586;9.928;2023-03-02T12:22:47;17.80;;;10.50;;
5612;SDS011;63463;53.586;9.928;2023-03-02T12:27:46;16.20;;;10.33;;
5612;SDS011;63463;53.586;9.928;2023-03-02T12:33:01;16.73;;;10.30;;
5612;SDS011;63463;53.586;9.928;2023-03-02T12:35:38;16.13;;;10.60;;
5612;SDS011;63463;53.586;9.928;2023-03-02T12:38:06;14.23;;;9.70;;
5612;SDS011;63463;53.586;9.928;2023-03-02T12:51:03;18.10;;;10.13;;
5612;SDS011;63463;53.586;9.928;2023-03-02T12:53:33;18.50;;;9.63;;
5612;SDS011;63463;53.586;9.928;2023-03-02T12:56:07;20.40;;;11.63;;
5612;SDS011;63463;53.586;9.928;2023-03-02T12:58:33;15.30;;;11.00;;
5612;SDS011;63463;53.586;9.928;2023-03-02T13:01:01;16.23;;;9.87;;
5612;SDS011;63463;53.586;9.928;2023-03-02T13:03:28;20.80;;;10.90;;
5612;SDS011;63463;53.586;9.928;2023-03-02T13:06:02;12.83;;;10.40;;
5612;SDS011;63463;53.586;9.928;2023-03-02T13:08:30;19.63;;;11.50;;
5612;SDS011;63463;53.586;9.928;2023-03-02T13:10:57;14.13;;;10.10;;
5612;SDS011;63463;53.586;9.928;2023-03-02T13:15:55;15.93;;;10.30;;
5612;SDS011;63463;53.586;9.928;2023-03-02T13:18:27;18.77;;;10.57;;
5612;SDS011;63463;53.586;9.928;2023-03-02T13:20:56;13.60;;;10.80;;
5612;SDS011;63463;53.586;9.928;2023-03-02T13:23:23;25.27;;;10.90;;
5612;SDS011;63463;53.586;9.928;2023-03-02T13:25:59;14.07;;;10.27;;
5612;SDS011;63463;53.586;9.928;2023-03-02T13:28:29;19.30;;;10.47;;
5612;SDS011;63463;53.586;9.928;2023-03-02T13:31:03;18.40;;;10.53;;
5612;SDS011;63463;53.586;9.928;2023-03-02T13:33:31;22.53;;;11.20;;
5612;SDS011;63463;53.586;9.928;2023-03-02T13:35:58;15.30;;;10.20;;
5612;SDS011;63463;53.586;9.928;2023-03-02T13:38:44;16.33;;;10.70;;
5612;SDS011;63463;53.586;9.928;2023-03-02T13:41:19;14.90;;;9.93;;
5612;SDS011;63463;53.586;9.928;2023-03-02T13:43:45;14.10;;;10.17;;
5612;SDS011;63463;53.586;9.928;2023-03-02T13:48:37;12.57;;;9.23;;
5612;SDS011;63463;53.586;9.928;2023-03-02T13:51:16;13.83;;;9.43;;
5612;SDS011;63463;53.586;9.928;2023-03-02T13:54:05;12.77;;;8.77;;
5612;SDS011;63463;53.586;9.928;2023-03-02T13:56:32;15.90;;;9.10;;
5612;SDS011;63463;53.586;9.928;2023-03-02T13:59:13;11.80;;;8.90;;
5612;SDS011;63463;53.586;9.928;2023-03-02T14:01:42;13.23;;;8.90;;
5612;SDS011;63463;53.586;9.928;2023-03-02T14:04:11;11.60;;;8.93;;
5612;SDS011;63463;53.586;9.928;2023-03-02T14:06:41;13.80;;;9.03;;
5612;SDS011;63463;53.586;9.928;2023-03-02T14:09:07;13.30;;;9.03;;
5612;SDS011;63463;53.586;9.928;2023-03-02T14:11:37;10.03;;;8.80;;
5612;SDS011;63463;53.586;9.928;2023-03-02T14:14:04;12.73;;;8.70;;
5612;SDS011;63463;53.586;9.928;2023-03-02T14:16:31;11.83;;;8.27;;
5612;SDS011;63463;53.586;9.928;2023-03-02T14:19:01;11.30;;;8.90;;
5612;SDS011;63463;53.586;9.928;2023-03-02T14:21:27;13.50;;;9.70;;
5612;SDS011;63463;53.586;9.928;2023-03-02T14:23:53;12.60;;;9.27;;
5612;SDS011;63463;53.586;9.928;2023-03-02T14:28:45;11.90;;;8.93;;
5612;SDS011;63463;53.586;9.928;2023-03-02T14:31:11;13.03;;;9.50;;
5612;SDS011;63463;53.586;9.928;2023-03-02T14:33:37;12.77;;;9.10;;
5612;SDS011;63463;53.586;9.928;2023-03-02T14:36:05;11.67;;;9.57;;
5612;SDS011;63463;53.586;9.928;2023-03-02T14:38:33;11.90;;;9.10;;
5612;SDS011;63463;53.586;9.928;2023-03-02T14:41:00;16.37;;;10.93;;
5612;SDS011;63463;53.586;9.928;2023-03-02T14:43:27;16.30;;;9.87;;
5612;SDS011;63463;53.586;9.928;2023-03-02T14:45:54;17.80;;;10.77;;
5612;SDS011;63463;53.586;9.928;2023-03-02T14:48:21;16.23;;;9.23;;
5612;SDS011;63463;53.586;9.928;2023-03-02T14:50:48;15.93;;;10.10;;
5612;SDS011;63463;53.586;9.928;2023-03-02T14:53:16;17.77;;;9.60;;
5612;SDS011;63463;53.586;9.928;2023-03-02T14:55:44;15.97;;;10.43;;
5612;SDS011;63463;53.586;9.928;2023-03-02T15:00:53;12.90;;;9.23;;
5612;SDS011;63463;53.586;9.928;2023-03-02T15:03:19;16.63;;;10.13;;
5612;SDS011;63463;53.586;9.928;2023-03-02T15:05:49;12.63;;;8.97;;
5612;SDS011;63463;53.586;9.928;2023-03-02T15:08:20;16.50;;;11.70;;
5612;SDS011;63463;53.586;9.928;2023-03-02T15:10:47;16.27;;;10.07;;
5612;SDS011;63463;53.586;9.928;2023-03-02T15:13:14;16.67;;;10.10;;
5612;SDS011;63463;53.586;9.928;2023-03-02T15:15:41;20.43;;;11.03;;
5612;SDS011;63463;53.586;9.928;2023-03-02T15:18:08;20.80;;;11.23;;
5612;SDS011;63463;53.586;9.928;2023-03-02T15:20:34;16.37;;;9.90;;
5612;SDS011;63463;53.586;9.928;2023-03-02T15:23:00;30.00;;;11.90;;
5612;SDS011;63463;53.586;9.928;2023-03-02T15:25:26;19.20;;;10.60;;
5612;SDS011;63463;53.586;9.928;2023-03-02T15:27:54;20.23;;;10.80;;
5612;SDS011;63463;53.586;9.928;2023-03-02T15:30:20;16.93;;;10.70;;
5612;SDS011;63463;53.586;9.928;2023-03-02T15:32:48;19.77;;;11.20;;
5612;SDS011;63463;53.586;9.928;2023-03-02T15:35:16;23.77;;;10.83;;
5612;SDS011;63463;53.586;9.928;2023-03-02T15:37:42;18.60;;;11.37;;